createdAt,value
2022-09-22T00:01:30.890Z,101816.56
2022-09-22T00:04:03.351Z,101826.25
2022-09-22T00:06:37.204Z,101826.16
2022-09-22T00:09:10.104Z,101823.25
2022-09-22T00:11:43.226Z,101826.63
2022-09-22T00:14:16.993Z,101834.50
2022-09-22T00:16:57.542Z,101831.06
2022-09-22T00:19:32.931Z,101823.69
2022-09-22T00:22:00.937Z,101829.97
2022-09-22T00:24:28.854Z,101830.50
2022-09-22T00:27:01.956Z,101825.78
2022-09-22T00:29:30.557Z,101823.47
2022-09-22T00:32:00.264Z,101827.88
2022-09-22T00:34:29.472Z,101833.06
2022-09-22T00:36:59.020Z,101828.56
2022-09-22T00:39:30.884Z,101830.22
2022-09-22T00:42:00.466Z,101826.75
2022-09-22T00:44:32.708Z,101825.19
2022-09-22T00:47:02.665Z,101823.13
2022-09-22T00:49:43.842Z,101826.59
2022-09-22T00:52:20.358Z,101811.56
2022-09-22T00:54:49.834Z,101812.88
2022-09-22T00:57:26.323Z,101811.91
2022-09-22T00:59:54.734Z,101811.84
2022-09-22T01:02:22.290Z,101815.78
2022-09-22T01:04:52.254Z,101810.28
2022-09-22T01:07:20.220Z,101810.59
2022-09-22T01:09:49.787Z,101816.44
2022-09-22T01:12:20.116Z,101806.59
2022-09-22T01:15:13.364Z,101811.00
2022-09-22T01:18:12.888Z,101811.56
2022-09-22T01:20:50.473Z,101811.66
2022-09-22T01:23:30.762Z,101806.34
2022-09-22T01:25:57.675Z,101813.59
2022-09-22T01:29:05.620Z,101805.06
2022-09-22T01:31:55.162Z,101799.72
2022-09-22T01:34:37.738Z,101807.34
2022-09-22T01:37:19.850Z,101799.53
2022-09-22T01:39:55.428Z,101798.97
2022-09-22T01:42:47.215Z,101803.47
2022-09-22T01:45:24.243Z,101808.72
2022-09-22T01:48:25.088Z,101812.31
2022-09-22T01:51:08.885Z,101814.94
2022-09-22T01:53:43.793Z,101803.84
2022-09-22T01:56:15.892Z,101807.41
2022-09-22T01:58:50.531Z,101803.84
2022-09-22T02:01:27.328Z,101801.16
2022-09-22T02:04:03.237Z,101796.81
2022-09-22T02:06:45.381Z,101801.88
2022-09-22T02:09:21.034Z,101798.22
2022-09-22T02:11:48.661Z,101801.63
2022-09-22T02:14:16.640Z,101807.78
2022-09-22T02:16:43.751Z,101800.06
2022-09-22T02:19:24.290Z,101803.38
2022-09-22T02:21:51.565Z,101802.72
2022-09-22T02:24:42.114Z,101801.53
2022-09-22T02:27:25.670Z,101796.88
2022-09-22T02:30:13.522Z,101798.31
2022-09-22T02:32:46.784Z,101800.06
2022-09-22T02:35:14.774Z,101796.94
2022-09-22T02:38:10.750Z,101799.25
2022-09-22T02:41:08.562Z,101790.59
2022-09-22T02:44:14.640Z,101798.03
2022-09-22T02:46:50.452Z,101800.78
2022-09-22T02:49:19.164Z,101797.47
2022-09-22T02:51:49.675Z,101793.34
2022-09-22T02:54:17.426Z,101793.25
2022-09-22T02:56:45.481Z,101804.19
2022-09-22T02:59:14.696Z,101803.81
2022-09-22T03:01:41.972Z,101800.53
2022-09-22T03:04:11.207Z,101800.78
2022-09-22T03:06:38.671Z,101806.09
2022-09-22T03:09:05.892Z,101803.56
2022-09-22T03:11:35.304Z,101795.38
2022-09-22T03:14:02.278Z,101795.00
2022-09-22T03:16:29.839Z,101803.44
2022-09-22T03:18:57.449Z,101798.16
2022-09-22T03:21:24.680Z,101799.59
2022-09-22T03:23:51.747Z,101804.09
2022-09-22T03:26:18.877Z,101806.94
2022-09-22T03:28:45.992Z,101799.75
2022-09-22T03:31:13.110Z,101797.66
2022-09-22T03:33:40.229Z,101800.56
2022-09-22T03:36:07.585Z,101797.66
2022-09-22T03:38:36.756Z,101796.47
2022-09-22T03:41:06.408Z,101802.84
2022-09-22T03:43:33.673Z,101805.16
2022-09-22T03:46:03.018Z,101798.81
2022-09-22T03:48:31.447Z,101797.81
2022-09-22T03:50:58.772Z,101803.75
2022-09-22T03:53:28.646Z,101800.72
2022-09-22T03:56:15.959Z,101799.16
2022-09-22T03:58:44.191Z,101800.47
2022-09-22T04:01:12.036Z,101807.16
2022-09-22T04:03:39.790Z,101805.53
2022-09-22T04:06:07.738Z,101801.38
2022-09-22T04:08:34.917Z,101803.78
2022-09-22T04:11:03.729Z,101798.78
2022-09-22T04:13:31.083Z,101799.41
2022-09-22T04:16:00.321Z,101804.63
2022-09-22T04:18:30.139Z,101799.19
2022-09-22T04:20:58.812Z,101797.25
2022-09-22T04:23:27.450Z,101801.84
2022-09-22T04:25:54.669Z,101801.63
2022-09-22T04:28:21.885Z,101797.03
2022-09-22T04:30:49.322Z,101803.25
2022-09-22T04:33:17.096Z,101803.81
2022-09-22T04:35:44.136Z,101799.72
2022-09-22T04:38:11.392Z,101802.75
2022-09-22T04:40:38.641Z,101804.03
2022-09-22T04:43:05.849Z,101805.34
2022-09-22T04:45:37.374Z,101795.50
2022-09-22T04:48:08.961Z,101805.63
2022-09-22T04:50:38.483Z,101803.44
2022-09-22T04:53:05.662Z,101801.72
2022-09-22T04:55:32.628Z,101798.41
2022-09-22T04:58:00.487Z,101802.75
2022-09-22T05:00:31.621Z,101798.81
2022-09-22T05:02:59.060Z,101798.09
2022-09-22T05:05:28.461Z,101799.25
2022-09-22T05:07:55.593Z,101801.34
2022-09-22T05:10:27.291Z,101803.31
2022-09-22T05:12:56.979Z,101807.63
2022-09-22T05:15:23.986Z,101800.59
2022-09-22T05:17:54.098Z,101806.84
2022-09-22T05:20:24.821Z,101815.47
2022-09-22T05:22:56.789Z,101811.97
2022-09-22T05:25:23.854Z,101799.75
2022-09-22T05:27:56.887Z,101804.81
2022-09-22T05:30:37.093Z,101811.00
2022-09-22T05:33:07.322Z,101816.34
2022-09-22T05:35:36.799Z,101817.97
2022-09-22T05:38:06.916Z,101826.63
2022-09-22T05:40:39.511Z,101829.91
2022-09-22T05:43:07.104Z,101834.25
2022-09-22T05:45:34.211Z,101831.56
2022-09-22T05:48:04.432Z,101832.81
2022-09-22T05:50:34.128Z,101824.91
2022-09-22T05:53:10.599Z,101831.41
2022-09-22T05:55:39.784Z,101830.34
2022-09-22T05:58:09.262Z,101837.34
2022-09-22T06:00:36.756Z,101832.38
2022-09-22T06:03:04.408Z,101834.06
2022-09-22T06:05:35.820Z,101832.63
2022-09-22T06:08:06.418Z,101836.03
2022-09-22T06:10:38.520Z,101828.97
2022-09-22T06:13:09.357Z,101841.19
2022-09-22T06:15:38.375Z,101835.22
2022-09-22T06:18:13.165Z,101836.47
2022-09-22T06:20:43.131Z,101838.44
2022-09-22T06:23:12.800Z,101839.25
2022-09-22T06:25:39.818Z,101840.28
2022-09-22T06:28:09.863Z,101839.03
2022-09-22T06:30:41.111Z,101842.00
2022-09-22T06:33:14.253Z,101834.28
2022-09-22T06:35:43.080Z,101842.22
2022-09-22T06:38:17.430Z,101843.47
2022-09-22T06:40:45.194Z,101843.25
2022-09-22T06:43:15.137Z,101845.47
2022-09-22T06:45:46.797Z,101847.00
2022-09-22T06:48:13.883Z,101839.94
2022-09-22T06:50:53.325Z,101845.03
2022-09-22T06:53:24.233Z,101847.88
2022-09-22T06:55:54.197Z,101849.22
2022-09-22T06:58:22.449Z,101842.88
2022-09-22T07:00:50.547Z,101843.06
2022-09-22T07:03:22.641Z,101847.19
2022-09-22T07:06:01.060Z,101846.50
2022-09-22T07:08:33.420Z,101844.97
2022-09-22T07:11:03.994Z,101842.41
2022-09-22T07:13:36.980Z,101849.25
2022-09-22T07:16:08.015Z,101847.22
2022-09-22T07:18:40.244Z,101842.44
2022-09-22T07:21:09.364Z,101842.06
2022-09-22T07:23:36.834Z,101847.03
2022-09-22T07:26:15.927Z,101847.75
2022-09-22T07:28:44.626Z,101842.81
2022-09-22T07:31:17.305Z,101851.75
2022-09-22T07:33:46.259Z,101851.31
2022-09-22T07:36:14.367Z,101846.91
2022-09-22T07:38:43.642Z,101836.88
2022-09-22T07:41:14.511Z,101845.19
2022-09-22T07:43:42.408Z,101838.94
2022-09-22T07:46:13.219Z,101835.16
2022-09-22T07:48:47.934Z,101841.88
2022-09-22T07:51:25.546Z,101849.00
2022-09-22T07:54:09.629Z,101841.56
2022-09-22T07:56:45.164Z,101842.56
2022-09-22T07:59:16.855Z,101846.28
2022-09-22T08:01:47.540Z,101845.22
2022-09-22T08:04:18.940Z,101855.19
2022-09-22T08:06:54.143Z,101844.56
2022-09-22T08:09:21.929Z,101845.66
2022-09-22T08:11:48.949Z,101841.34
2022-09-22T08:14:18.590Z,101847.84
2022-09-22T08:16:46.081Z,101846.28
2022-09-22T08:19:15.786Z,101849.00
2022-09-22T08:21:51.625Z,101840.56
2022-09-22T08:24:23.298Z,101845.53
2022-09-22T08:26:53.376Z,101846.81
2022-09-22T08:29:21.161Z,101845.94
2022-09-22T08:31:51.549Z,101848.25
2022-09-22T08:34:21.856Z,101849.50
2022-09-22T08:36:49.120Z,101834.84
2022-09-22T08:39:18.183Z,101837.78
2022-09-22T08:41:48.265Z,101842.16
2022-09-22T08:44:37.579Z,101840.91
2022-09-22T08:47:05.779Z,101844.09
2022-09-22T08:50:03.412Z,101838.69
2022-09-22T08:52:49.322Z,101833.50
2022-09-22T08:55:30.739Z,101832.25
2022-09-22T08:58:25.402Z,101833.44
2022-09-22T09:01:12.316Z,101832.22
2022-09-22T09:04:42.973Z,101835.22
2022-09-22T09:07:46.771Z,101836.03
2022-09-22T09:10:32.911Z,101833.94
2022-09-22T09:13:40.407Z,101830.81
2022-09-22T09:16:57.215Z,101822.69
2022-09-22T09:19:58.208Z,101833.13
2022-09-22T09:22:32.154Z,101828.00
2022-09-22T09:25:24.690Z,101822.25
2022-09-22T09:28:06.085Z,101815.75
2022-09-22T09:30:51.304Z,101820.41
2022-09-22T09:33:40.228Z,101831.75
2022-09-22T09:38:55.355Z,101823.44
2022-09-22T09:41:39.295Z,101820.84
2022-09-22T09:44:06.742Z,101812.66
2022-09-22T09:46:56.055Z,101817.56
2022-09-22T09:49:24.406Z,101807.59
2022-09-22T09:51:56.883Z,101818.34
2022-09-22T09:54:26.033Z,101823.22
2022-09-22T09:57:18.893Z,101818.09
2022-09-22T10:00:07.323Z,101819.44
2022-09-22T10:02:46.948Z,101818.75
2022-09-22T10:05:22.492Z,101813.59
2022-09-22T10:08:15.264Z,101813.47
2022-09-22T10:10:45.937Z,101817.63
2022-09-22T10:13:15.977Z,101816.59
2022-09-22T10:16:21.017Z,101813.56
2022-09-22T10:18:51.506Z,101813.03
2022-09-22T10:21:23.668Z,101808.66
2022-09-22T10:23:55.261Z,101804.78
2022-09-22T10:26:31.230Z,101818.84
2022-09-22T10:29:19.530Z,101811.44
2022-09-22T10:32:06.443Z,101809.25
2022-09-22T10:34:34.686Z,101808.84
2022-09-22T10:37:05.472Z,101805.06
2022-09-22T10:39:52.809Z,101805.53
2022-09-22T10:42:46.303Z,101805.69
2022-09-22T10:45:16.682Z,101798.69
2022-09-22T10:47:56.357Z,101794.03
2022-09-22T10:50:35.830Z,101796.84
2022-09-22T10:53:27.841Z,101800.41
2022-09-22T10:56:34.038Z,101790.63
2022-09-22T10:59:38.234Z,101788.53
2022-09-22T11:03:01.551Z,101788.53
2022-09-22T11:06:12.356Z,101777.75
2022-09-22T11:09:20.482Z,101784.34
2022-09-22T11:12:12.946Z,101784.50
2022-09-22T11:15:18.475Z,101773.59
2022-09-22T11:18:46.729Z,101777.53
2022-09-22T11:21:54.889Z,101779.44
2022-09-22T11:24:47.725Z,101773.22
2022-09-22T11:27:41.131Z,101781.19
2022-09-22T11:30:21.748Z,101773.34
2022-09-22T11:33:32.074Z,101783.56
2022-09-22T11:36:40.727Z,101783.72
2022-09-22T11:39:30.511Z,101778.31
2022-09-22T11:42:25.206Z,101782.47
2022-09-22T11:45:21.039Z,101776.09
2022-09-22T11:48:11.482Z,101783.38
2022-09-22T11:51:24.899Z,101776.00
2022-09-22T11:54:13.888Z,101775.44
2022-09-22T11:57:01.049Z,101767.47
2022-09-22T11:59:50.953Z,101769.63
2022-09-22T12:02:46.561Z,101770.28
2022-09-22T12:05:33.964Z,101764.41
2022-09-22T12:08:11.212Z,101763.50
2022-09-22T12:10:47.763Z,101766.47
2022-09-22T12:13:21.335Z,101765.59
2022-09-22T12:16:25.206Z,101759.66
2022-09-22T12:19:29.358Z,101762.56
2022-09-22T12:22:15.959Z,101765.31
2022-09-22T12:24:47.307Z,101768.38
2022-09-22T12:27:23.613Z,101768.25
2022-09-22T12:30:04.199Z,101761.69
2022-09-22T12:32:42.865Z,101766.22
2022-09-22T12:35:31.083Z,101768.69
2022-09-22T12:38:02.393Z,101766.34
2022-09-22T12:40:41.607Z,101768.81
2022-09-22T12:43:21.266Z,101766.22
2022-09-22T12:45:52.313Z,101763.00
2022-09-22T12:48:29.310Z,101768.19
2022-09-22T12:51:25.248Z,101761.19
2022-09-22T12:54:12.635Z,101762.31
2022-09-22T12:56:54.555Z,101766.84
2022-09-22T13:00:07.095Z,101752.84
2022-09-22T13:02:43.335Z,101746.06
2022-09-22T13:05:10.231Z,101755.81
2022-09-22T13:07:45.860Z,101760.50
2022-09-22T13:10:22.254Z,101754.97
2022-09-22T13:13:01.974Z,101747.38
2022-09-22T13:15:50.192Z,101744.69
2022-09-22T13:18:32.072Z,101737.75
2022-09-22T13:21:21.112Z,101735.66
2022-09-22T13:23:54.080Z,101739.53
2022-09-22T13:26:31.627Z,101738.44
2022-09-22T13:29:13.140Z,101729.41
2022-09-22T13:31:51.050Z,101733.50
2022-09-22T13:34:28.616Z,101730.00
2022-09-22T13:37:22.778Z,101730.81
2022-09-22T13:39:57.366Z,101723.75
2022-09-22T13:42:34.128Z,101725.38
2022-09-22T13:45:20.363Z,101726.63
2022-09-22T13:47:48.932Z,101724.25
2022-09-22T13:50:22.938Z,101727.53
2022-09-22T13:52:51.590Z,101729.47
2022-09-22T13:55:32.041Z,101735.75
2022-09-22T13:58:00.046Z,101733.91
2022-09-22T14:00:41.322Z,101739.31
2022-09-22T14:03:22.297Z,101739.84
2022-09-22T14:05:53.883Z,101746.56
2022-09-22T14:08:30.639Z,101748.94
2022-09-22T14:11:00.138Z,101740.88
2022-09-22T14:13:38.830Z,101741.13
2022-09-22T14:16:52.401Z,101739.22
2022-09-22T14:19:22.881Z,101740.44
2022-09-22T14:21:55.375Z,101732.19
2022-09-22T14:24:23.229Z,101734.94
2022-09-22T14:27:04.643Z,101734.59
2022-09-22T14:29:36.977Z,101737.69
2022-09-22T14:32:40.916Z,101732.88
2022-09-22T14:35:27.610Z,101735.06
2022-09-22T14:38:05.399Z,101722.47
2022-09-22T14:40:55.531Z,101730.75
2022-09-22T14:43:41.130Z,101732.16
2022-09-22T14:46:41.863Z,101734.69
2022-09-22T14:49:47.842Z,101724.72
2022-09-22T14:52:30.720Z,101729.22
2022-09-22T14:55:07.924Z,101724.91
2022-09-22T14:57:36.211Z,101724.31
2022-09-22T15:00:22.564Z,101723.34
2022-09-22T15:02:55.714Z,101725.75
2022-09-22T15:05:34.330Z,101721.13
2022-09-22T15:08:02.499Z,101718.88
2022-09-22T15:10:35.991Z,101719.09
2022-09-22T15:13:29.802Z,101710.03
2022-09-22T15:15:58.332Z,101719.94
2022-09-22T15:18:29.922Z,101710.56
2022-09-22T15:21:04.240Z,101710.19
2022-09-22T15:23:45.328Z,101714.91
2022-09-22T15:26:19.799Z,101717.00
2022-09-22T15:28:51.099Z,101719.91
2022-09-22T15:31:22.330Z,101718.81
2022-09-22T15:33:49.735Z,101724.84
2022-09-22T15:36:21.088Z,101719.50
2022-09-22T15:38:48.662Z,101722.19
2022-09-22T15:41:16.897Z,101720.75
2022-09-22T15:43:44.503Z,101722.09
2022-09-22T15:46:36.122Z,101728.38
2022-09-22T15:49:23.314Z,101733.88
2022-09-22T15:51:50.789Z,101728.13
2022-09-22T15:54:21.997Z,101728.19
2022-09-22T15:56:55.817Z,101732.56
2022-09-22T15:59:28.178Z,101736.09
2022-09-22T16:01:57.074Z,101737.56
2022-09-22T16:04:24.614Z,101737.97
2022-09-22T16:06:59.464Z,101730.91
2022-09-22T16:09:26.540Z,101725.50
2022-09-22T16:11:55.020Z,101728.22
2022-09-22T16:14:23.003Z,101726.97
2022-09-22T16:16:52.541Z,101730.75
2022-09-22T16:19:22.215Z,101736.47
2022-09-22T16:21:54.247Z,101721.75
2022-09-22T16:24:22.714Z,101727.06
2022-09-22T16:26:51.902Z,101721.91
2022-09-22T16:29:19.079Z,101726.75
2022-09-22T16:31:46.233Z,101729.38
2022-09-22T16:34:13.339Z,101728.13
2022-09-22T16:36:41.785Z,101726.28
2022-09-22T16:39:09.255Z,101724.75
2022-09-22T16:41:36.814Z,101722.81
2022-09-22T16:44:06.255Z,101726.28
2022-09-22T16:46:38.438Z,101731.75
2022-09-22T16:49:10.092Z,101723.22
2022-09-22T16:51:48.884Z,101726.97
2022-09-22T16:54:17.738Z,101722.00
2022-09-22T16:56:50.167Z,101727.88
2022-09-22T16:59:23.551Z,101726.13
2022-09-22T17:01:50.991Z,101721.06
2022-09-22T17:04:21.562Z,101722.72
2022-09-22T17:06:48.938Z,101728.00
2022-09-22T17:09:16.912Z,101730.22
2022-09-22T17:11:48.777Z,101734.59
2022-09-22T17:14:24.486Z,101731.47
2022-09-22T17:16:55.636Z,101727.19
2022-09-22T17:19:26.417Z,101728.34
2022-09-22T17:21:55.995Z,101726.69
2022-09-22T17:24:25.094Z,101735.53
2022-09-22T17:26:56.322Z,101738.38
2022-09-22T17:29:26.508Z,101730.00
2022-09-22T17:32:18.404Z,101724.75
2022-09-22T17:34:45.438Z,101728.34
2022-09-22T17:37:15.468Z,101725.22
2022-09-22T17:39:43.618Z,101732.19
2022-09-22T17:42:11.096Z,101725.00
2022-09-22T17:44:38.103Z,101732.47
2022-09-22T17:47:24.090Z,101729.13
2022-09-22T17:50:09.497Z,101731.09
2022-09-22T17:52:54.877Z,101726.84
2022-09-22T17:55:25.300Z,101732.91
2022-09-22T17:57:56.564Z,101729.75
2022-09-22T18:00:25.961Z,101734.69
2022-09-22T18:02:54.430Z,101732.78
2022-09-22T18:05:32.099Z,101731.78
2022-09-22T18:07:59.584Z,101738.63
2022-09-22T18:10:32.301Z,101730.94
2022-09-22T18:13:00.312Z,101739.88
2022-09-22T18:15:29.287Z,101743.28
2022-09-22T18:17:58.065Z,101741.41
2022-09-22T18:20:26.293Z,101740.84
2022-09-22T18:23:00.350Z,101749.31
2022-09-22T18:25:28.325Z,101750.03
2022-09-22T18:27:55.339Z,101757.09
2022-09-22T18:30:22.438Z,101752.19
2022-09-22T18:32:49.586Z,101745.75
2022-09-22T18:35:17.168Z,101748.22
2022-09-22T18:37:44.346Z,101747.63
2022-09-22T18:40:12.494Z,101751.22
2022-09-22T18:42:44.652Z,101760.28
2022-09-22T18:45:12.590Z,101754.50
2022-09-22T18:47:41.059Z,101749.38
2022-09-22T18:50:09.892Z,101753.06
2022-09-22T18:52:37.375Z,101760.47
2022-09-22T18:55:05.191Z,101748.31
2022-09-22T18:57:32.254Z,101759.44
2022-09-22T19:00:00.388Z,101758.56
2022-09-22T19:02:27.859Z,101765.00
2022-09-22T19:04:55.043Z,101755.97
2022-09-22T19:07:43.557Z,101759.63
2022-09-22T19:10:14.843Z,101763.75
2022-09-22T19:12:42.841Z,101760.88
2022-09-22T19:15:19.073Z,101771.06
2022-09-22T19:17:50.619Z,101757.78
2022-09-22T19:20:26.235Z,101760.19
2022-09-22T19:22:54.106Z,101770.66
2022-09-22T19:25:22.557Z,101765.00
2022-09-22T19:27:52.613Z,101763.97
2022-09-22T19:30:23.291Z,101765.38
2022-09-22T19:32:51.657Z,101764.63
2022-09-22T19:35:19.639Z,101771.25
2022-09-22T19:37:47.000Z,101764.28
2022-09-22T19:40:18.680Z,101767.59
2022-09-22T19:42:49.953Z,101766.22
2022-09-22T19:45:17.227Z,101776.34
2022-09-22T19:47:44.220Z,101774.31
2022-09-22T19:50:11.213Z,101773.31
2022-09-22T19:52:38.313Z,101781.94
2022-09-22T19:55:11.584Z,101781.28
2022-09-22T19:57:41.215Z,101784.31
2022-09-22T20:00:18.061Z,101777.53
2022-09-22T20:02:46.107Z,101783.63
2022-09-22T20:05:21.939Z,101773.47
2022-09-22T20:07:50.084Z,101783.22
2022-09-22T20:10:19.280Z,101775.81
2022-09-22T20:12:49.964Z,101780.78
2022-09-22T20:15:22.332Z,101777.06
2022-09-22T20:17:49.501Z,101770.75
2022-09-22T20:20:24.144Z,101773.53
2022-09-22T20:23:01.114Z,101769.22
2022-09-22T20:25:33.735Z,101777.56
2022-09-22T20:28:00.844Z,101771.59
2022-09-22T20:30:30.252Z,101770.59
2022-09-22T20:32:57.295Z,101773.84
2022-09-22T20:35:24.451Z,101771.53
2022-09-22T20:37:51.746Z,101769.03
2022-09-22T20:40:21.445Z,101764.50
2022-09-22T20:42:51.010Z,101770.00
2022-09-22T20:45:22.887Z,101772.47
2022-09-22T20:47:50.289Z,101768.50
2022-09-22T20:50:17.459Z,101772.03
2022-09-22T20:52:44.554Z,101769.25
2022-09-22T20:55:12.010Z,101767.44
2022-09-22T20:57:40.326Z,101772.31
2022-09-22T21:00:08.533Z,101774.31
2022-09-22T21:02:35.669Z,101777.00
2022-09-22T21:05:05.535Z,101778.34
2022-09-22T21:07:33.283Z,101770.00
2022-09-22T21:10:19.352Z,101772.56
2022-09-22T21:12:46.361Z,101758.56
2022-09-22T21:15:15.801Z,101765.69
2022-09-22T21:17:43.938Z,101760.47
2022-09-22T21:20:13.972Z,101759.25
2022-09-22T21:22:40.975Z,101757.44
2022-09-22T21:25:08.610Z,101754.34
2022-09-22T21:27:36.397Z,101757.75
2022-09-22T21:30:03.582Z,101760.47
2022-09-22T21:32:31.282Z,101756.91
2022-09-22T21:34:58.395Z,101753.63
2022-09-22T21:37:25.679Z,101758.63
2022-09-22T21:39:52.708Z,101748.59
2022-09-22T21:42:21.829Z,101753.19
2022-09-22T21:44:48.843Z,101755.94
2022-09-22T21:47:15.881Z,101761.44
2022-09-22T21:49:45.395Z,101752.78
2022-09-22T21:52:12.359Z,101753.97
2022-09-22T21:54:41.612Z,101756.97
2022-09-22T21:57:10.798Z,101745.81
2022-09-22T21:59:37.814Z,101750.94
2022-09-22T22:02:04.960Z,101753.50
2022-09-22T22:04:32.680Z,101750.09
2022-09-22T22:06:59.778Z,101749.91
2022-09-22T22:09:26.842Z,101750.94
2022-09-22T22:11:59.365Z,101747.91
2022-09-22T22:14:32.090Z,101746.81
2022-09-22T22:17:00.571Z,101745.50
2022-09-22T22:19:27.762Z,101750.41
2022-09-22T22:21:55.415Z,101750.31
2022-09-22T22:24:25.562Z,101742.78
2022-09-22T22:27:10.101Z,101746.72
2022-09-22T22:29:41.184Z,101745.44
2022-09-22T22:32:10.544Z,101747.66
2022-09-22T22:34:40.387Z,101741.50
2022-09-22T22:37:10.092Z,101739.03
2022-09-22T22:39:37.679Z,101746.03
2022-09-22T22:42:05.446Z,101741.34
2022-09-22T22:44:32.536Z,101745.78
2022-09-22T22:46:59.597Z,101737.13
2022-09-22T22:49:28.247Z,101738.63
2022-09-22T22:51:55.294Z,101738.22
2022-09-22T22:54:22.367Z,101738.38
2022-09-22T22:56:51.406Z,101737.53
2022-09-22T22:59:19.187Z,101730.13
2022-09-22T23:01:46.327Z,101732.63
2022-09-22T23:04:13.770Z,101734.66
2022-09-22T23:06:47.379Z,101731.16
2022-09-22T23:09:16.813Z,101731.06
2022-09-22T23:11:45.932Z,101732.81
2022-09-22T23:14:17.086Z,101730.94
2022-09-22T23:16:49.405Z,101725.03
2022-09-22T23:19:18.300Z,101719.88
2022-09-22T23:21:46.411Z,101723.22
2022-09-22T23:24:19.117Z,101710.56
2022-09-22T23:26:49.805Z,101711.47
2022-09-22T23:29:16.885Z,101712.31
2022-09-22T23:31:44.128Z,101708.63
2022-09-22T23:34:11.118Z,101713.16
2022-09-22T23:36:39.616Z,101708.78
2022-09-22T23:39:06.872Z,101703.09
2022-09-22T23:41:36.583Z,101704.16
2022-09-22T23:44:06.940Z,101700.13
2022-09-22T23:46:34.838Z,101693.78
2022-09-22T23:49:02.406Z,101691.13
2022-09-22T23:51:32.300Z,101690.94
2022-09-22T23:53:59.599Z,101695.34
2022-09-22T23:56:29.072Z,101686.09
2022-09-22T23:58:56.104Z,101689.56
